Time;durP1;ratioP1;P1;durP2;ratioP2;P2;SDS_P1;SDS_P2;PMS_P1;PMS_P2;Temp;Humidity;BMP_temperature;BMP_pressure;BME280_temperature;BME280_humidity;BME280_pressure;Samples;Min_cycle;Max_cycle;Signal;HPM_P1;HPM_P2
2023/12/17 00:00:16;;;;;;;;;;;102.40;2227.20;;;;;;5075456;28;19948;-75
2023/12/17 00:02:41;;;;;;;;;;;102.40;2227.20;;;;;;5075342;28;19908;-77
2023/12/17 00:05:07;;;;;;;;;;;102.50;2227.20;;;;;;5075375;28;19909;-74
2023/12/17 00:07:33;;;;;;;;;;;102.60;2227.20;;;;;;5075212;28;20007;-74
2023/12/17 00:09:58;;;;;;;;;;;102.70;2227.20;;;;;;5075589;28;20001;-74
2023/12/17 00:12:24;;;;;;;;;;;102.70;2227.20;;;;;;5075007;28;19962;-74
2023/12/17 00:14:49;;;;;;;;;;;102.80;2227.20;;;;;;5075196;28;19905;-73
2023/12/17 00:17:15;;;;;;;;;;;102.80;2227.20;;;;;;5075141;28;20325;-73
2023/12/17 00:19:41;;;;;;;;;;;102.70;2227.20;;;;;;5073775;28;19904;-74
2023/12/17 00:22:06;;;;;;;;;;;102.50;2227.20;;;;;;5075163;28;19911;-74
2023/12/17 00:24:32;;;;;;;;;;;77.70;2227.20;;;;;;5075348;28;20349;-74
2023/12/17 00:26:57;;;;;;;;;;;77.70;2227.20;;;;;;5074584;28;19919;-73
2023/12/17 00:29:23;;;;;;;;;;;102.40;2227.20;;;;;;5076961;28;20327;-74
2023/12/17 00:31:49;;;;;;;;;;;102.50;2227.20;;;;;;5079603;28;19904;-73
2023/12/17 00:34:14;;;;;;;;;;;102.60;2227.20;;;;;;5075391;28;20312;-75
2023/12/17 00:36:40;;;;;;;;;;;102.70;2227.20;;;;;;5074840;28;19916;-74
2023/12/17 00:39:06;;;;;;;;;;;102.50;2227.20;;;;;;5073423;28;20318;-76
2023/12/17 00:41:33;;;;;;;;;;;77.70;2227.20;;;;;;5074749;28;20327;-74
2023/12/17 00:43:59;;;;;;;;;;;77.70;2227.20;;;;;;5074031;28;19908;-74
2023/12/17 00:46:25;;;;;;;;;;;77.70;2227.20;;;;;;5074615;28;19938;-74
2023/12/17 00:48:50;;;;;;;;;;;102.40;2227.20;;;;;;5074567;28;20257;-74
2023/12/17 00:51:16;;;;;;;;;;;102.40;2227.20;;;;;;5074563;28;19927;-74
2023/12/17 00:53:41;;;;;;;;;;;77.70;2227.20;;;;;;5074207;28;19935;-75
2023/12/17 00:56:07;;;;;;;;;;;77.70;2227.20;;;;;;5074326;28;19911;-74
2023/12/17 00:58:33;;;;;;;;;;;77.60;2227.20;;;;;;5074309;28;20127;-73
2023/12/17 01:00:58;;;;;;;;;;;77.50;2227.20;;;;;;5072752;28;19927;-74
2023/12/17 01:03:24;;;;;;;;;;;77.50;2227.20;;;;;;5074075;28;19958;-74
2023/12/17 01:05:49;;;;;;;;;;;77.50;2227.20;;;;;;5074341;28;19938;-74
2023/12/17 01:08:15;;;;;;;;;;;77.50;2227.20;;;;;;5074142;28;19915;-73
2023/12/17 01:10:41;;;;;;;;;;;77.40;2227.20;;;;;;5072787;28;19995;-74
2023/12/17 01:13:07;;;;;;;;;;;77.30;2227.20;;;;;;5074038;28;20054;-75
2023/12/17 01:15:32;;;;;;;;;;;77.30;2227.20;;;;;;5074314;28;19932;-74
2023/12/17 01:17:58;;;;;;;;;;;77.20;2227.20;;;;;;5074106;28;19904;-73
2023/12/17 01:20:24;;;;;;;;;;;77.40;2227.20;;;;;;5074087;28;20045;-75
2023/12/17 01:22:49;;;;;;;;;;;77.40;2227.20;;;;;;5074035;28;20300;-74
2023/12/17 01:25:15;;;;;;;;;;;77.50;2227.20;;;;;;5073884;28;19919;-74
2023/12/17 01:27:41;;;;;;;;;;;77.50;2227.20;;;;;;5073924;28;19912;-74
2023/12/17 01:30:06;;;;;;;;;;;77.60;2227.20;;;;;;5073520;28;20280;-74
2023/12/17 01:32:32;;;;;;;;;;;77.60;2227.20;;;;;;5072488;28;19955;-75
2023/12/17 01:34:58;;;;;;;;;;;77.50;2227.20;;;;;;5073445;28;19974;-74
2023/12/17 01:37:23;;;;;;;;;;;77.40;2227.20;;;;;;5073813;28;19909;-75
2023/12/17 01:39:49;;;;;;;;;;;77.30;2227.20;;;;;;5072285;28;19940;-75
2023/12/17 01:42:14;;;;;;;;;;;77.40;2227.20;;;;;;5072437;28;19905;-75
2023/12/17 01:44:41;;;;;;;;;;;77.30;2227.20;;;;;;5073730;28;19908;-75
2023/12/17 01:47:07;;;;;;;;;;;77.10;2227.20;;;;;;5073670;28;20468;-75
2023/12/17 01:49:33;;;;;;;;;;;77.30;2227.20;;;;;;5073515;28;19911;-75
2023/12/17 01:51:58;;;;;;;;;;;77.30;2227.20;;;;;;5073871;28;19998;-74
2023/12/17 01:54:24;;;;;;;;;;;77.40;2227.20;;;;;;5073527;28;20357;-74
2023/12/17 01:56:50;;;;;;;;;;;77.40;2227.20;;;;;;5073584;28;19905;-74
2023/12/17 01:59:16;;;;;;;;;;;77.30;2227.20;;;;;;5072374;28;19904;-73
2023/12/17 02:01:43;;;;;;;;;;;77.30;2227.20;;;;;;5089179;28;19910;-74
2023/12/17 02:04:09;;;;;;;;;;;77.40;2227.20;;;;;;5073171;28;20429;-75
2023/12/17 02:06:35;;;;;;;;;;;77.50;2227.20;;;;;;5074597;28;19912;-76
2023/12/17 02:09:01;;;;;;;;;;;77.50;2227.20;;;;;;5077628;28;20045;-74
2023/12/17 02:11:26;;;;;;;;;;;77.50;2227.20;;;;;;5077443;28;19905;-73
2023/12/17 02:13:52;;;;;;;;;;;77.60;2227.20;;;;;;5077311;28;19949;-77
2023/12/17 02:16:17;;;;;;;;;;;77.50;2227.20;;;;;;5077414;28;20478;-74
2023/12/17 02:18:43;;;;;;;;;;;77.50;2227.20;;;;;;5077371;28;19915;-75
2023/12/17 02:21:09;;;;;;;;;;;77.50;2227.20;;;;;;5077476;28;19940;-74
2023/12/17 02:23:34;;;;;;;;;;;77.50;2227.20;;;;;;5077129;28;19905;-74
2023/12/17 02:26:00;;;;;;;;;;;77.40;2227.20;;;;;;5075374;28;20341;-74
2023/12/17 02:28:26;;;;;;;;;;;77.40;2227.20;;;;;;5074693;28;19908;-73
2023/12/17 02:30:51;;;;;;;;;;;77.40;2227.20;;;;;;5076830;28;19908;-75
2023/12/17 02:33:17;;;;;;;;;;;77.40;2227.20;;;;;;5074277;28;19916;-74
2023/12/17 02:35:43;;;;;;;;;;;77.40;2227.20;;;;;;5076581;28;19966;-74
2023/12/17 02:38:08;;;;;;;;;;;77.40;2227.20;;;;;;5074762;28;19905;-75
2023/12/17 02:40:34;;;;;;;;;;;77.40;2227.20;;;;;;5075189;28;19919;-74
2023/12/17 02:42:59;;;;;;;;;;;77.40;2227.20;;;;;;5076580;28;19908;-74
2023/12/17 02:45:25;;;;;;;;;;;77.40;2227.20;;;;;;5074599;28;19932;-74
2023/12/17 02:47:51;;;;;;;;;;;77.20;2227.20;;;;;;5075156;28;19916;-74
2023/12/17 02:50:17;;;;;;;;;;;77.30;2227.20;;;;;;5074881;28;19909;-74
2023/12/17 02:52:42;;;;;;;;;;;77.30;2227.20;;;;;;5076102;28;19915;-74
2023/12/17 02:55:09;;;;;;;;;;;77.40;2227.20;;;;;;5076655;28;20411;-74
2023/12/17 02:57:34;;;;;;;;;;;77.40;2227.20;;;;;;5075673;28;19908;-74
2023/12/17 03:00:00;;;;;;;;;;;77.40;2227.20;;;;;;5076222;28;19909;-74
2023/12/17 03:02:26;;;;;;;;;;;77.30;2227.20;;;;;;5074338;28;19908;-75
2023/12/17 03:04:51;;;;;;;;;;;77.20;2227.20;;;;;;5076416;28;19987;-74
2023/12/17 03:07:17;;;;;;;;;;;77.00;2227.20;;;;;;5074402;28;19916;-75
2023/12/17 03:09:43;;;;;;;;;;;76.90;2227.20;;;;;;5076589;28;19904;-73
2023/12/17 03:12:08;;;;;;;;;;;76.90;2227.20;;;;;;5075713;28;19916;-73
2023/12/17 03:14:34;;;;;;;;;;;77.00;2227.20;;;;;;5075822;28;19912;-73
2023/12/17 03:16:59;;;;;;;;;;;77.00;2227.20;;;;;;5075503;28;19912;-73
2023/12/17 03:19:25;;;;;;;;;;;77.00;2227.20;;;;;;5074228;28;19908;-73
2023/12/17 03:21:51;;;;;;;;;;;77.10;2227.20;;;;;;5076021;28;19904;-74
2023/12/17 03:24:16;;;;;;;;;;;77.10;2227.20;;;;;;5075593;28;19908;-73
2023/12/17 03:26:42;;;;;;;;;;;77.10;2227.20;;;;;;5075459;28;19916;-73
2023/12/17 03:29:07;;;;;;;;;;;77.10;2227.20;;;;;;5075985;28;20381;-74
2023/12/17 03:31:33;;;;;;;;;;;77.10;2227.20;;;;;;5075654;28;19956;-73
2023/12/17 03:33:59;;;;;;;;;;;76.90;2227.20;;;;;;5075327;28;20297;-74
2023/12/17 03:36:25;;;;;;;;;;;77.00;2227.20;;;;;;5075399;28;20020;-76
2023/12/17 03:38:50;;;;;;;;;;;76.90;2227.20;;;;;;5075696;28;20373;-73
2023/12/17 03:41:23;;;;;;;;;;;76.90;2227.20;;;;;;5073883;28;20518;-73
2023/12/17 03:43:52;;;;;;;;;;;77.00;2227.20;;;;;;5076772;28;19959;-73
2023/12/17 03:46:21;;;;;;;;;;;77.00;2227.20;;;;;;5076170;28;19958;-73
2023/12/17 03:48:47;;;;;;;;;;;77.00;2227.20;;;;;;5075187;28;19934;-74
2023/12/17 03:51:13;;;;;;;;;;;76.90;2227.20;;;;;;5075284;28;19905;-74
2023/12/17 03:53:38;;;;;;;;;;;76.90;2227.20;;;;;;5075124;28;19915;-74
2023/12/17 03:56:11;;;;;;;;;;;76.80;2227.20;;;;;;5075157;28;19909;-73
2023/12/17 03:58:37;;;;;;;;;;;52.10;2227.20;;;;;;5072096;28;19927;-75
2023/12/17 04:01:03;;;;;;;;;;;52.00;2227.20;;;;;;5074871;28;19908;-75
2023/12/17 04:03:29;;;;;;;;;;;52.10;2227.20;;;;;;5074626;28;19950;-74
2023/12/17 04:05:56;;;;;;;;;;;52.10;2227.20;;;;;;5073783;28;19913;-74
2023/12/17 04:08:21;;;;;;;;;;;76.80;2227.20;;;;;;5075249;28;19915;-73
2023/12/17 04:10:47;;;;;;;;;;;52.10;2227.20;;;;;;5074744;28;19908;-74
2023/12/17 04:13:12;;;;;;;;;;;52.00;2227.20;;;;;;5074484;28;19995;-73
2023/12/17 04:15:38;;;;;;;;;;;52.00;2227.20;;;;;;5074890;28;19910;-72
2023/12/17 04:18:04;;;;;;;;;;;52.10;2227.20;;;;;;5074330;28;19938;-73
2023/12/17 04:20:29;;;;;;;;;;;52.00;2227.20;;;;;;5075204;28;19905;-73
2023/12/17 04:22:55;;;;;;;;;;;52.10;2227.20;;;;;;5074299;28;19908;-73
2023/12/17 04:25:21;;;;;;;;;;;52.10;2227.20;;;;;;5074466;28;19962;-73
2023/12/17 04:27:46;;;;;;;;;;;52.10;2227.20;;;;;;5073788;28;19960;-73
2023/12/17 04:30:12;;;;;;;;;;;76.80;2227.20;;;;;;5074035;28;19970;-73
2023/12/17 04:32:37;;;;;;;;;;;52.10;2227.20;;;;;;5074694;28;19908;-75
2023/12/17 04:35:03;;;;;;;;;;;52.10;2227.20;;;;;;5072873;28;20094;-74
2023/12/17 04:37:29;;;;;;;;;;;52.10;2227.20;;;;;;5074131;28;20002;-75
2023/12/17 04:39:55;;;;;;;;;;;52.10;2227.20;;;;;;5074671;28;19904;-74
2023/12/17 04:42:21;;;;;;;;;;;52.00;2227.20;;;;;;5074110;28;20006;-73
2023/12/17 04:44:46;;;;;;;;;;;52.00;2227.20;;;;;;5074567;28;19905;-73
2023/12/17 04:47:12;;;;;;;;;;;52.10;2227.20;;;;;;5073844;28;19916;-73
2023/12/17 04:49:38;;;;;;;;;;;52.00;2227.20;;;;;;5074004;28;20377;-72
2023/12/17 04:52:03;;;;;;;;;;;52.00;2227.20;;;;;;5073743;28;19947;-72
2023/12/17 04:54:29;;;;;;;;;;;52.00;2227.20;;;;;;5073948;28;19999;-73
2023/12/17 04:56:55;;;;;;;;;;;52.10;2227.20;;;;;;5074252;28;19912;-73
2023/12/17 04:59:21;;;;;;;;;;;52.10;2227.20;;;;;;5073830;28;19962;-73
2023/12/17 05:01:46;;;;;;;;;;;52.00;2227.20;;;;;;5074149;28;20005;-73
2023/12/17 05:04:13;;;;;;;;;;;52.00;2227.20;;;;;;5073360;28;19997;-73
2023/12/17 05:06:39;;;;;;;;;;;51.70;2227.20;;;;;;5072269;28;19920;-73
2023/12/17 05:09:04;;;;;;;;;;;51.60;2227.20;;;;;;5073936;28;20010;-73
2023/12/17 05:11:30;;;;;;;;;;;51.70;2227.20;;;;;;5071441;28;19913;-72
2023/12/17 05:13:55;;;;;;;;;;;51.70;2227.20;;;;;;5069919;28;20012;-74
2023/12/17 05:16:21;;;;;;;;;;;51.80;2227.20;;;;;;5076712;28;20369;-73
2023/12/17 05:18:47;;;;;;;;;;;51.90;2227.20;;;;;;5080751;28;19958;-73
2023/12/17 05:21:12;;;;;;;;;;;52.00;2227.20;;;;;;5078745;28;20352;-73
2023/12/17 05:23:38;;;;;;;;;;;52.10;2227.20;;;;;;5068609;28;19908;-74
2023/12/17 05:26:03;;;;;;;;;;;52.10;2227.20;;;;;;5070986;28;19978;-72
2023/12/17 05:28:29;;;;;;;;;;;52.00;2227.20;;;;;;5080554;28;19904;-73
2023/12/17 05:30:55;;;;;;;;;;;52.00;2227.20;;;;;;5077172;28;19912;-72
2023/12/17 05:33:20;;;;;;;;;;;52.00;2227.20;;;;;;5073600;28;20007;-73
2023/12/17 05:35:46;;;;;;;;;;;52.00;2227.20;;;;;;5064061;28;19913;-73
2023/12/17 05:38:11;;;;;;;;;;;51.90;2227.20;;;;;;5066127;28;19915;-75
2023/12/17 05:40:37;;;;;;;;;;;51.90;2227.20;;;;;;5079018;28;19904;-73
2023/12/17 05:43:03;;;;;;;;;;;51.80;2227.20;;;;;;5072684;28;19908;-72
2023/12/17 05:45:30;;;;;;;;;;;51.70;2227.20;;;;;;5073924;28;20387;-74
2023/12/17 05:47:56;;;;;;;;;;;51.30;2227.20;;;;;;5066509;28;19916;-73
2023/12/17 05:50:22;;;;;;;;;;;26.50;2201.60;;;;;;5069671;28;19950;-73
2023/12/17 05:52:48;;;;;;;;;;;26.50;2201.60;;;;;;5065015;28;19935;-72
2023/12/17 05:55:14;;;;;;;;;;;51.30;2227.20;;;;;;5076033;28;19912;-73
2023/12/17 05:57:42;;;;;;;;;;;51.40;2227.20;;;;;;5069584;28;19912;-74
2023/12/17 06:00:08;;;;;;;;;;;51.50;2227.20;;;;;;5062554;28;19908;-73
2023/12/17 06:02:34;;;;;;;;;;;51.70;2227.20;;;;;;5060986;28;20007;-79
2023/12/17 06:05:00;;;;;;;;;;;51.80;2227.20;;;;;;5072774;28;19970;-74
2023/12/17 06:07:25;;;;;;;;;;;51.80;2227.20;;;;;;5069746;28;19917;-74
2023/12/17 06:09:51;;;;;;;;;;;51.90;2227.20;;;;;;5081215;28;20387;-75
2023/12/17 06:12:17;;;;;;;;;;;52.00;2227.20;;;;;;5072826;28;19985;-75
2023/12/17 06:14:43;;;;;;;;;;;52.00;2227.20;;;;;;5067776;28;19951;-75
2023/12/17 06:17:08;;;;;;;;;;;52.00;2227.20;;;;;;5065656;28;19991;-74
2023/12/17 06:19:34;;;;;;;;;;;52.00;2227.20;;;;;;5071705;28;19919;-75
2023/12/17 06:22:02;;;;;;;;;;;52.00;2227.20;;;;;;5077864;28;20375;-74
2023/12/17 06:24:28;;;;;;;;;;;52.00;2227.20;;;;;;5075609;28;19908;-74
2023/12/17 06:26:54;;;;;;;;;;;52.10;2227.20;;;;;;5077858;28;19985;-74
2023/12/17 06:29:20;;;;;;;;;;;52.10;2227.20;;;;;;5079126;28;19999;-75
2023/12/17 06:31:45;;;;;;;;;;;52.00;2227.20;;;;;;5065111;28;19912;-74
2023/12/17 06:34:11;;;;;;;;;;;52.00;2227.20;;;;;;5062356;28;19916;-74
2023/12/17 06:36:36;;;;;;;;;;;51.90;2227.20;;;;;;5068419;28;19959;-74
2023/12/17 06:39:02;;;;;;;;;;;52.00;2227.20;;;;;;5071019;28;19910;-73
2023/12/17 06:41:28;;;;;;;;;;;52.10;2227.20;;;;;;5085237;28;19909;-74
2023/12/17 06:43:54;;;;;;;;;;;52.10;2227.20;;;;;;5073220;28;19919;-75
2023/12/17 06:46:19;;;;;;;;;;;52.10;2227.20;;;;;;5064570;28;19908;-75
2023/12/17 06:48:46;;;;;;;;;;;51.90;2227.20;;;;;;5068670;28;19905;-75
2023/12/17 06:51:12;;;;;;;;;;;51.80;2227.20;;;;;;5077298;28;20299;-75
2023/12/17 06:53:38;;;;;;;;;;;51.60;2227.20;;;;;;5076412;28;19923;-75
2023/12/17 06:56:03;;;;;;;;;;;51.30;2227.20;;;;;;5074173;28;19916;-77
2023/12/17 06:58:29;;;;;;;;;;;51.30;2227.20;;;;;;5077634;28;19904;-75
2023/12/17 07:00:55;;;;;;;;;;;26.50;2201.60;;;;;;5079354;28;20353;-75
2023/12/17 07:03:20;;;;;;;;;;;51.20;2227.20;;;;;;5076093;28;19934;-75
2023/12/17 07:05:46;;;;;;;;;;;26.50;2201.60;;;;;;5067510;28;19919;-76
2023/12/17 07:08:12;;;;;;;;;;;51.30;2227.20;;;;;;5083344;28;19912;-75
2023/12/17 07:10:37;;;;;;;;;;;26.50;2201.60;;;;;;5080296;28;19910;-75
2023/12/17 07:13:06;;;;;;;;;;;51.30;2227.20;;;;;;5074353;28;19915;-75
2023/12/17 07:15:31;;;;;;;;;;;51.50;2227.20;;;;;;5074543;28;19908;-78
2023/12/17 07:17:57;;;;;;;;;;;51.80;2227.20;;;;;;5072697;28;20415;-76
2023/12/17 07:20:22;;;;;;;;;;;52.10;2227.20;;;;;;5081466;28;19999;-76
2023/12/17 07:22:48;;;;;;;;;;;76.80;2227.20;;;;;;5073067;28;20323;-75
2023/12/17 07:25:15;;;;;;;;;;;76.90;2227.20;;;;;;5077177;28;19912;-74
2023/12/17 07:27:41;;;;;;;;;;;76.90;2227.20;;;;;;5089828;28;19998;-74
2023/12/17 07:30:07;;;;;;;;;;;52.10;2227.20;;;;;;5083409;28;19955;-74
2023/12/17 07:32:32;;;;;;;;;;;76.80;2227.20;;;;;;5072175;28;20327;-75
2023/12/17 07:34:58;;;;;;;;;;;77.00;2227.20;;;;;;5081571;28;20366;-75
2023/12/17 07:37:23;;;;;;;;;;;77.30;2227.20;;;;;;5078097;28;20309;-74
2023/12/17 07:39:49;;;;;;;;;;;77.40;2227.20;;;;;;5089606;28;19991;-74
2023/12/17 07:42:14;;;;;;;;;;;77.40;2227.20;;;;;;5078165;28;19912;-75
2023/12/17 07:44:40;;;;;;;;;;;77.50;2227.20;;;;;;5072801;28;19908;-74
2023/12/17 07:47:10;;;;;;;;;;;77.60;2227.20;;;;;;5065015;28;20282;-75
2023/12/17 07:49:36;;;;;;;;;;;102.40;2227.20;;;;;;5068910;28;20392;-74
2023/12/17 07:52:02;;;;;;;;;;;102.50;2227.20;;;;;;5076581;28;19913;-74
2023/12/17 07:54:29;;;;;;;;;;;102.50;2227.20;;;;;;5087860;28;19908;-73
2023/12/17 07:56:55;;;;;;;;;;;102.50;2227.20;;;;;;5077007;28;20413;-74
2023/12/17 07:59:20;;;;;;;;;;;102.60;2227.20;;;;;;5076394;28;19991;-76
2023/12/17 08:01:46;;;;;;;;;;;102.70;2227.20;;;;;;5071925;28;19935;-75
2023/12/17 08:04:13;;;;;;;;;;;102.60;2227.20;;;;;;5070127;28;20382;-75
2023/12/17 08:06:38;;;;;;;;;;;102.70;2227.20;;;;;;5067238;28;19921;-74
2023/12/17 08:09:04;;;;;;;;;;;102.70;2227.20;;;;;;5090006;28;19962;-74
2023/12/17 08:11:30;;;;;;;;;;;102.80;2227.20;;;;;;5079517;28;19970;-74
2023/12/17 08:13:55;;;;;;;;;;;102.80;2227.20;;;;;;5075403;28;19916;-74
2023/12/17 08:16:21;;;;;;;;;;;102.90;2227.20;;;;;;5076558;28;20406;-74
2023/12/17 08:18:46;;;;;;;;;;;102.80;2227.20;;;;;;5069599;28;19931;-74
2023/12/17 08:21:12;;;;;;;;;;;102.90;2227.20;;;;;;5076409;28;19998;-74
2023/12/17 08:23:38;;;;;;;;;;;102.70;2227.20;;;;;;5090955;28;20391;-74
2023/12/17 08:26:03;;;;;;;;;;;102.50;2227.20;;;;;;5086809;28;19913;-75
2023/12/17 08:28:29;;;;;;;;;;;102.50;2227.20;;;;;;5076135;28;20357;-75
2023/12/17 08:30:55;;;;;;;;;;;102.60;2227.20;;;;;;5090818;28;19905;-75
2023/12/17 08:33:20;;;;;;;;;;;102.70;2227.20;;;;;;5068269;28;19917;-75
2023/12/17 08:35:46;;;;;;;;;;;102.60;2227.20;;;;;;5061782;28;19913;-76
2023/12/17 08:38:11;;;;;;;;;;;102.80;2227.20;;;;;;5087970;28;19908;-77
2023/12/17 08:40:37;;;;;;;;;;;102.80;2227.20;;;;;;5087364;28;19904;-75
2023/12/17 08:43:03;;;;;;;;;;;102.80;2227.20;;;;;;5080008;28;19938;-76
2023/12/17 08:45:29;;;;;;;;;;;102.90;2227.20;;;;;;5065166;28;19909;-78
2023/12/17 08:47:55;;;;;;;;;;;102.70;2227.20;;;;;;5074538;28;19940;-77
2023/12/17 08:50:20;;;;;;;;;;;102.90;2227.20;;;;;;5076563;28;19930;-77
2023/12/17 08:52:46;;;;;;;;;;;103.10;2227.20;;;;;;5074840;28;19908;-77
2023/12/17 08:55:12;;;;;;;;;;;103.30;2227.20;;;;;;5062999;28;19909;-76
2023/12/17 08:57:37;;;;;;;;;;;103.30;2227.20;;;;;;5088456;28;19904;-77
2023/12/17 09:00:06;;;;;;;;;;;128.10;2252.80;;;;;;5078714;28;19908;-78
2023/12/17 09:02:34;;;;;;;;;;;128.30;2252.80;;;;;;5067589;28;19947;-78
2023/12/17 09:04:59;;;;;;;;;;;128.40;2252.80;;;;;;5075432;28;19912;-78
2023/12/17 09:07:25;;;;;;;;;;;128.20;2252.80;;;;;;5069518;28;19972;-77
2023/12/17 09:09:51;;;;;;;;;;;128.20;2252.80;;;;;;5083761;28;19989;-77
2023/12/17 09:12:16;;;;;;;;;;;128.00;2252.80;;;;;;5088589;28;20570;-76
2023/12/17 09:14:42;;;;;;;;;;;128.00;2252.80;;;;;;5075630;28;19916;-77
2023/12/17 09:17:08;;;;;;;;;;;128.20;2252.80;;;;;;5075229;28;19908;-75
2023/12/17 09:19:34;;;;;;;;;;;128.30;2252.80;;;;;;5065691;28;19931;-77
2023/12/17 09:21:59;;;;;;;;;;;128.60;2252.80;;;;;;5078429;28;19987;-80
2023/12/17 09:24:25;;;;;;;;;;;128.70;2252.80;;;;;;5065406;28;19908;-79
2023/12/17 09:26:50;;;;;;;;;;;153.60;2252.80;;;;;;5090923;28;19958;-79
2023/12/17 09:29:16;;;;;;;;;;;153.70;2252.80;;;;;;5082138;28;19912;-78
2023/12/17 09:31:42;;;;;;;;;;;153.80;2252.80;;;;;;5070384;28;20369;-77
2023/12/17 09:34:07;;;;;;;;;;;154.10;2252.80;;;;;;5069098;28;20012;-77
2023/12/17 09:36:33;;;;;;;;;;;154.40;2252.80;;;;;;5068574;28;19916;-77
2023/12/17 09:38:59;;;;;;;;;;;179.20;2252.80;;;;;;5066571;28;19904;-76
2023/12/17 09:41:25;;;;;;;;;;;154.50;2252.80;;;;;;5077256;28;20289;-76
2023/12/17 09:43:51;;;;;;;;;;;179.40;2252.80;;;;;;5079356;28;19904;-77
2023/12/17 09:46:17;;;;;;;;;;;179.70;2252.80;;;;;;5070968;28;20056;-75
2023/12/17 09:48:42;;;;;;;;;;;179.50;2252.80;;;;;;5055956;28;19905;-77
2023/12/17 09:51:10;;;;;;;;;;;179.70;2252.80;;;;;;5088458;28;19908;-76
2023/12/17 09:53:35;;;;;;;;;;;180.10;2252.80;;;;;;5079919;28;19908;-76
2023/12/17 09:56:01;;;;;;;;;;;205.00;2252.80;;;;;;5062572;28;19915;-75
2023/12/17 09:58:27;;;;;;;;;;;205.30;2252.80;;;;;;5073017;28;20022;-75
2023/12/17 10:00:53;;;;;;;;;;;205.20;2252.80;;;;;;5073080;28;20323;-76
2023/12/17 10:03:19;;;;;;;;;;;205.30;2252.80;;;;;;5062050;28;19967;-76
2023/12/17 10:05:54;;;;;;;;;;;205.20;2252.80;;;;;;5083761;28;19912;-74
2023/12/17 10:08:20;;;;;;;;;;;205.70;2252.80;;;;;;5075905;28;19967;-75
2023/12/17 10:10:46;;;;;;;;;;;205.50;2252.80;;;;;;5074027;28;19905;-74
2023/12/17 10:13:17;;;;;;;;;;;205.70;2252.80;;;;;;5064907;28;20410;-75
2023/12/17 10:15:42;;;;;;;;;;;205.60;2252.80;;;;;;5068921;28;19908;-75
2023/12/17 10:18:08;;;;;;;;;;;230.50;2252.80;;;;;;5080462;28;19920;-75
2023/12/17 10:20:34;;;;;;;;;;;230.40;2252.80;;;;;;5061292;28;19919;-75
2023/12/17 10:23:00;;;;;;;;;;;230.40;2252.80;;;;;;5069125;28;19944;-77
2023/12/17 10:25:26;;;;;;;;;;;230.80;2252.80;;;;;;5068120;28;19913;-76
2023/12/17 10:27:55;;;;;;;;;;;230.90;2252.80;;;;;;5067419;28;20045;-75
2023/12/17 10:30:20;;;;;;;;;;;230.90;2252.80;;;;;;5069149;28;19915;-75
2023/12/17 10:32:46;;;;;;;;;;;231.20;2252.80;;;;;;5075224;28;19912;-76
2023/12/17 10:35:13;;;;;;;;;;;256.00;2252.80;;;;;;5066889;28;19916;-75
2023/12/17 10:37:39;;;;;;;;;;;256.20;2252.80;;;;;;5076544;28;20335;-75
2023/12/17 10:40:05;;;;;;;;;;;256.50;2252.80;;;;;;5079918;28;19915;-75
2023/12/17 10:42:32;;;;;;;;;;;256.70;2252.80;;;;;;5083470;28;19915;-74
2023/12/17 10:44:57;;;;;;;;;;;281.80;2278.40;;;;;;5077575;28;19909;-77
2023/12/17 10:47:24;;;;;;;;;;;256.70;2252.80;;;;;;5085430;28;19921;-75
2023/12/17 10:49:50;;;;;;;;;;;281.70;2278.40;;;;;;5068024;28;19954;-74
2023/12/17 10:52:16;;;;;;;;;;;256.50;2252.80;;;;;;5080350;28;19962;-74
2023/12/17 10:54:42;;;;;;;;;;;256.50;2252.80;;;;;;5067239;28;19999;-77
2023/12/17 10:57:11;;;;;;;;;;;256.60;2252.80;;;;;;5073752;28;19950;-78
2023/12/17 10:59:37;;;;;;;;;;;256.80;2252.80;;;;;;5081465;28;20427;-76
2023/12/17 11:02:04;;;;;;;;;;;256.90;2252.80;;;;;;5079632;28;19915;-76
2023/12/17 11:04:30;;;;;;;;;;;281.70;2278.40;;;;;;5071941;28;20357;-76
2023/12/17 11:06:55;;;;;;;;;;;281.60;2278.40;;;;;;5077821;28;19924;-76
2023/12/17 11:09:21;;;;;;;;;;;256.90;2227.20;;;;;;5076347;28;19905;-76
2023/12/17 11:11:47;;;;;;;;;;;281.80;2227.20;;;;;;5078755;28;19915;-77
2023/12/17 11:14:13;;;;;;;;;;;281.70;2227.20;;;;;;5081068;28;19916;-75
2023/12/17 11:16:39;;;;;;;;;;;281.70;2227.20;;;;;;5075093;28;20280;-75
2023/12/17 11:19:05;;;;;;;;;;;281.80;2176.00;;;;;;5082584;28;19912;-75
2023/12/17 11:21:32;;;;;;;;;;;256.90;2252.80;;;;;;5064404;28;19905;-75
2023/12/17 11:23:58;;;;;;;;;;;281.70;2227.20;;;;;;5064389;28;19959;-76
2023/12/17 11:26:24;;;;;;;;;;;281.60;2278.40;;;;;;5079605;28;19966;-75
2023/12/17 11:28:50;;;;;;;;;;;256.80;2252.80;;;;;;5075509;28;20937;-76
2023/12/17 11:31:15;;;;;;;;;;;256.90;2252.80;;;;;;5067325;28;19952;-75
2023/12/17 11:33:42;;;;;;;;;;;256.80;2252.80;;;;;;5069590;28;19964;-77
2023/12/17 11:36:08;;;;;;;;;;;256.90;2227.20;;;;;;5075871;28;19908;-78
2023/12/17 11:38:35;;;;;;;;;;;256.80;2227.20;;;;;;5065877;28;19931;-77
2023/12/17 11:41:01;;;;;;;;;;;256.70;2227.20;;;;;;5090333;28;19986;-76
2023/12/17 11:43:27;;;;;;;;;;;256.70;2201.60;;;;;;5076311;28;19944;-76
2023/12/17 11:45:54;;;;;;;;;;;256.70;2252.80;;;;;;5078137;28;19904;-75
2023/12/17 11:48:20;;;;;;;;;;;256.70;2227.20;;;;;;5070567;28;19927;-76
2023/12/17 11:50:47;;;;;;;;;;;256.50;2252.80;;;;;;5071069;28;19995;-76
2023/12/17 11:53:14;;;;;;;;;;;256.70;2227.20;;;;;;5066678;28;19909;-75
2023/12/17 11:55:40;;;;;;;;;;;256.60;2227.20;;;;;;5085308;28;19904;-76
2023/12/17 11:58:06;;;;;;;;;;;256.50;2201.60;;;;;;5083321;28;19911;-75
2023/12/17 12:00:31;;;;;;;;;;;256.40;2252.80;;;;;;5075275;28;19914;-76
2023/12/17 12:02:57;;;;;;;;;;;256.00;2252.80;;;;;;5078950;28;20296;-75
2023/12/17 12:05:22;;;;;;;;;;;256.20;2252.80;;;;;;5074930;28;19909;-75
2023/12/17 12:07:52;;;;;;;;;;;256.30;2252.80;;;;;;5090644;28;19963;-75
2023/12/17 12:10:18;;;;;;;;;;;256.30;2252.80;;;;;;5085846;28;19912;-75
2023/12/17 12:12:43;;;;;;;;;;;256.00;2252.80;;;;;;5072183;28;19908;-75
2023/12/17 12:15:09;;;;;;;;;;;231.30;2252.80;;;;;;5082699;28;19908;-75
2023/12/17 12:17:35;;;;;;;;;;;256.10;2252.80;;;;;;5067536;28;19912;-74
2023/12/17 12:20:01;;;;;;;;;;;256.10;2252.80;;;;;;5068064;28;19908;-74
2023/12/17 12:22:27;;;;;;;;;;;256.00;2252.80;;;;;;5073163;28;19956;-74
2023/12/17 12:24:56;;;;;;;;;;;231.30;2252.80;;;;;;5075529;28;19956;-79
2023/12/17 12:27:22;;;;;;;;;;;230.90;2252.80;;;;;;5082970;28;19919;-74
2023/12/17 12:29:48;;;;;;;;;;;231.20;2252.80;;;;;;5080164;28;20323;-74
2023/12/17 12:32:29;;;;;;;;;;;231.10;2252.80;;;;;;5069720;28;20019;-74
2023/12/17 12:34:55;;;;;;;;;;;231.10;2252.80;;;;;;5076363;28;19920;-74
2023/12/17 12:37:34;;;;;;;;;;;231.00;2252.80;;;;;;5071439;28;19908;-74
2023/12/17 12:40:00;;;;;;;;;;;231.00;2252.80;;;;;;5072451;28;20401;-75
2023/12/17 12:42:26;;;;;;;;;;;231.00;2252.80;;;;;;5071088;28;20411;-74
2023/12/17 12:44:52;;;;;;;;;;;231.10;2252.80;;;;;;5071070;28;19908;-75
2023/12/17 12:47:18;;;;;;;;;;;231.00;2252.80;;;;;;5081702;28;19924;-74
2023/12/17 12:49:43;;;;;;;;;;;230.80;2252.80;;;;;;5075183;28;20384;-74
2023/12/17 12:52:09;;;;;;;;;;;230.80;2252.80;;;;;;5072604;28;19912;-74
2023/12/17 12:54:35;;;;;;;;;;;230.80;2252.80;;;;;;5087253;28;19917;-74
2023/12/17 12:57:00;;;;;;;;;;;230.80;2252.80;;;;;;5078740;28;19911;-74
2023/12/17 12:59:26;;;;;;;;;;;230.90;2252.80;;;;;;5081287;28;19908;-73
2023/12/17 13:01:54;;;;;;;;;;;230.80;2252.80;;;;;;5077893;28;19915;-73
2023/12/17 13:04:20;;;;;;;;;;;230.90;2252.80;;;;;;5080857;28;19919;-73
2023/12/17 13:06:46;;;;;;;;;;;230.90;2252.80;;;;;;5067702;28;19947;-74
2023/12/17 13:09:12;;;;;;;;;;;230.80;2252.80;;;;;;5068995;28;19949;-73
2023/12/17 13:11:38;;;;;;;;;;;230.90;2252.80;;;;;;5076281;28;19939;-73
2023/12/17 13:14:04;;;;;;;;;;;230.90;2252.80;;;;;;5073881;28;19909;-73
2023/12/17 13:16:29;;;;;;;;;;;230.80;2252.80;;;;;;5070739;28;19915;-73
2023/12/17 13:18:55;;;;;;;;;;;230.80;2252.80;;;;;;5074133;28;19927;-73
2023/12/17 13:21:21;;;;;;;;;;;230.80;2252.80;;;;;;5089575;28;19955;-72
2023/12/17 13:23:49;;;;;;;;;;;230.80;2252.80;;;;;;5078794;28;20383;-73
2023/12/17 13:26:16;;;;;;;;;;;230.90;2252.80;;;;;;5069326;28;20381;-72
2023/12/17 13:28:41;;;;;;;;;;;230.80;2252.80;;;;;;5073638;28;19916;-72
2023/12/17 13:31:07;;;;;;;;;;;230.80;2252.80;;;;;;5075052;28;19904;-73
2023/12/17 13:33:33;;;;;;;;;;;230.80;2252.80;;;;;;5074889;28;20374;-73
2023/12/17 13:35:58;;;;;;;;;;;230.70;2252.80;;;;;;5072411;28;20003;-73
2023/12/17 13:38:26;;;;;;;;;;;230.80;2252.80;;;;;;5074016;28;20010;-73